Relevés horaires Elsenborn (Belgique)


Relevés horaires à Elsenborn - Jeudi 08 Déc. 2016
Heure UTC1 Température [°C] Vent [km/h] Hum. [%] Pres.4 [hPa] Visi. [Km] Nébu. [octa] Préc.5 [mm] Cond.
2m. Res. Ros. Dir.2 Vit. Moy. Raf.3
23:00 2.2 2.2 0.1 SO 3.7 -- -- 86 1031.7(0.1/3h) 15 -- -- --
22:00 2.2 2.2 -- NNO 1.9 -- -- -- 1031.5(-0.2/3h) 17 -- -- --
21:00 -0.5 -0.5 -0.8 NNO 1.9 -- -- 98 1032.5(0.8/3h) 6 -- -- --
20:00 0.2 0.2 -0.3 SSO 3.7 -- -- 96 1032.2(0.2/3h) 7 -- -- --
19:00 -1.1 -1.1 -1.7 NNO 1.9 -- -- 96 1032.7(0.6/3h) 4.6 -- -- --
18:00 -0.1 -0.1 -1.1 SO 3.7 -- -- 93 1031.7(0.2/3h) 7 -- -- --
17:00 0.3 0.3 -1.1 SO 3.7 -- -- 90 1031.7(0.3/3h) 9 -- -- --
16:00 0.8 0.8 -1.0 SSO 3.7 -- -- 88 1031.5(-0.5/3h) 11 -- -- --
15:00 2.3 2.3 -0.6 SSO 3.7 -- -- 81 1030.7(-1.0/3h) 13 -- -- --
14:00 2.9 1.5 -0.6 S 5.6 -- -- 78 1030.7(-1.2/3h) 13 -- -- --
13:00 3.4 3.4 -0.8 OSO 3.7 -- -- 74 1031.2(-1.0/3h) 16 -- -- --
12:00 3.2 3.2 -1.2 SO 3.7 -- -- 73 1031.5(-1.2/3h) 18 -- -- --
11:00 2.9 2.9 -1.8 SSO 3.7 -- -- 71 1032(-1.2/3h) 17 -- -- --
10:00 3.2 3.2 -2.1 SO 3.7 -- -- 68 1032.4(-0.6/3h) 18 -- -- --
09:00 2.5 2.5 -2.5 SO 3.7 -- -- 69 1033.2(0.0/3h) 20 -- -- --
08:00 0.9 0.9 -3.0 SSO 3.7 -- -- 75 1033.9(0.6/3h) 20 -- -- --
07:00 1.2 -0.5 -3.3 SSO 5.6 -- -- 72 1033.7(0.5/3h) 20 -- -- --
06:00 0.0 0.0 -2.9 OSO 3.7 -- -- 81 1033.9(-0.1/3h) 20 -- -- --
05:00 -0.3 -0.3 -3.2 SO 3.7 -- -- 81 1033.5(-1.2/3h) 20 -- -- --
04:00 -0.8 -0.8 -2.6 NNO 1.9 -- -- 88 1033.7(-1.2/3h) 15 -- -- --
03:00 -1.2 -1.2 -2.1 NNO 1.9 -- -- 94 1034.4(-1.0/3h) 11 -- -- --
02:00 -1.0 -1.0 -2.0 NNO 1.9 -- -- 93 1035(-0.5/3h) 11 -- -- --
01:00 -0.3 -0.3 -1.7 SO 3.7 -- -- 90 1034.7(-0.7/3h) 9 -- -- --
00:00 0.0 0.0 -1.3 NNO 1.9 -- -- 91 1035.2(0.0/3h) 17 -- -- --

1 Coordinated Universal Time. Actuellement il est 07:00 locale et 05:00 UTC.

2 Le vent souffle depuis la direction indiquée vers la direction oposée.

3 Les rafales max. sont disponible 40 min après l'heure du relevé.

4 Pour les stations d'altitude (plus de 600m) le géopotentiel du niveau le plus proche de la pression obligatoire est indiqué.

5 Les stations disposant d'un diffuseur peuvent indiquer "trace". Cela signifie que des précipitations ont touchés le sol mais que la quantité est inférieure à 0.1 mm.

Récapitulatif de la journée
Température [°C] Vent [km/h] Ensoleillement4 [h] Precipitations totale5 [mm] Pression [Hpa]
Min1 Max.2 Moy.3 Max. Min Max.
-1.8 3.9 0 -- 0 h 0 min 0 1030.7 1035.2

1 Température minimale relevée entre 18:00 UTC la veille et 18:00 UTC le jour donné.

2 Température maximale relevée entre 06:00 UTC le jour donné et 06:00 UTC le lendemain.

3 Vent moyen de la journée basé sur les relevés horaires.

4 Ensoleillement en heures relevé entre 06:00 UTC la veille et 06:00 UTC le jour donné.

5 Précipitations totales tombées entre 06:00 UTC la jour donné et 06:00 UTC le lendemain.

Graphiques horaires